sensor_id;sensor_type;location;lat;lon;timestamp;temperature;humidity
11963;DHT22;62678;52.130;5.584;2023-02-15T00:01:15;3.10;99.90
11963;DHT22;62678;52.130;5.584;2023-02-15T00:03:43;3.10;99.90
11963;DHT22;62678;52.130;5.584;2023-02-15T00:06:10;3.10;99.90
11963;DHT22;62678;52.130;5.584;2023-02-15T00:08:37;3.00;99.90
11963;DHT22;62678;52.130;5.584;2023-02-15T00:11:05;3.00;99.90
11963;DHT22;62678;52.130;5.584;2023-02-15T00:13:34;3.00;99.90
11963;DHT22;62678;52.130;5.584;2023-02-15T00:16:05;3.00;99.90
11963;DHT22;62678;52.130;5.584;2023-02-15T00:18:32;2.90;99.90
11963;DHT22;62678;52.130;5.584;2023-02-15T00:21:03;2.90;99.90
11963;DHT22;62678;52.130;5.584;2023-02-15T00:23:30;2.90;99.90
11963;DHT22;62678;52.130;5.584;2023-02-15T00:26:05;2.80;99.90
11963;DHT22;62678;52.130;5.584;2023-02-15T00:28:34;2.80;99.90
11963;DHT22;62678;52.130;5.584;2023-02-15T00:31:05;2.80;99.90
11963;DHT22;62678;52.130;5.584;2023-02-15T00:33:32;2.80;99.90
11963;DHT22;62678;52.130;5.584;2023-02-15T00:36:00;2.80;99.90
11963;DHT22;62678;52.130;5.584;2023-02-15T00:38:28;2.80;99.90
11963;DHT22;62678;52.130;5.584;2023-02-15T00:40:56;2.80;99.90
11963;DHT22;62678;52.130;5.584;2023-02-15T00:43:23;2.80;99.90
11963;DHT22;62678;52.130;5.584;2023-02-15T00:45:52;2.70;99.90
11963;DHT22;62678;52.130;5.584;2023-02-15T00:48:19;2.70;99.90
11963;DHT22;62678;52.130;5.584;2023-02-15T00:50:46;2.60;99.90
11963;DHT22;62678;52.130;5.584;2023-02-15T00:53:15;2.60;99.90
11963;DHT22;62678;52.130;5.584;2023-02-15T00:55:42;2.60;99.90
11963;DHT22;62678;52.130;5.584;2023-02-15T00:58:10;2.60;99.90
11963;DHT22;62678;52.130;5.584;2023-02-15T01:00:37;2.60;99.90
11963;DHT22;62678;52.130;5.584;2023-02-15T01:03:06;2.60;99.90
11963;DHT22;62678;52.130;5.584;2023-02-15T01:05:33;2.50;99.90
11963;DHT22;62678;52.130;5.584;2023-02-15T01:08:00;2.50;99.90
11963;DHT22;62678;52.130;5.584;2023-02-15T01:10:28;2.50;99.90
11963;DHT22;62678;52.130;5.584;2023-02-15T01:12:55;2.40;99.90
11963;DHT22;62678;52.130;5.584;2023-02-15T01:15:23;2.40;99.90
11963;DHT22;62678;52.130;5.584;2023-02-15T01:17:50;2.40;99.90
11963;DHT22;62678;52.130;5.584;2023-02-15T01:20:21;2.40;99.90
11963;DHT22;62678;52.130;5.584;2023-02-15T01:22:48;2.40;99.90
11963;DHT22;62678;52.130;5.584;2023-02-15T01:25:16;2.40;99.90
11963;DHT22;62678;52.130;5.584;2023-02-15T01:27:42;2.30;99.90
11963;DHT22;62678;52.130;5.584;2023-02-15T01:30:10;2.40;99.90
11963;DHT22;62678;52.130;5.584;2023-02-15T01:32:37;2.30;99.90
11963;DHT22;62678;52.130;5.584;2023-02-15T01:35:05;2.30;99.90
11963;DHT22;62678;52.130;5.584;2023-02-15T01:37:34;2.30;99.90
11963;DHT22;62678;52.130;5.584;2023-02-15T01:40:02;2.30;99.90
11963;DHT22;62678;52.130;5.584;2023-02-15T01:42:29;2.30;99.90
11963;DHT22;62678;52.130;5.584;2023-02-15T01:44:57;2.20;99.90
11963;DHT22;62678;52.130;5.584;2023-02-15T01:47:29;2.20;99.90
11963;DHT22;62678;52.130;5.584;2023-02-15T01:50:03;2.20;99.90
11963;DHT22;62678;52.130;5.584;2023-02-15T01:52:36;2.20;99.90
11963;DHT22;62678;52.130;5.584;2023-02-15T01:55:04;2.20;99.90
11963;DHT22;62678;52.130;5.584;2023-02-15T01:57:32;2.10;99.90
11963;DHT22;62678;52.130;5.584;2023-02-15T02:00:02;2.20;99.90
11963;DHT22;62678;52.130;5.584;2023-02-15T02:02:30;2.20;99.90
11963;DHT22;62678;52.130;5.584;2023-02-15T02:04:59;2.10;99.90
11963;DHT22;62678;52.130;5.584;2023-02-15T02:07:30;2.10;99.90
11963;DHT22;62678;52.130;5.584;2023-02-15T02:10:01;2.10;99.90
11963;DHT22;62678;52.130;5.584;2023-02-15T02:12:29;2.10;99.90
11963;DHT22;62678;52.130;5.584;2023-02-15T02:14:56;2.00;99.90
11963;DHT22;62678;52.130;5.584;2023-02-15T02:17:32;2.00;99.90
11963;DHT22;62678;52.130;5.584;2023-02-15T02:20:32;2.00;99.90
11963;DHT22;62678;52.130;5.584;2023-02-15T02:23:25;2.00;99.90
11963;DHT22;62678;52.130;5.584;2023-02-15T02:26:23;2.00;99.90
11963;DHT22;62678;52.130;5.584;2023-02-15T02:32:25;2.00;99.90
11963;DHT22;62678;52.130;5.584;2023-02-15T02:35:00;2.00;99.90
11963;DHT22;62678;52.130;5.584;2023-02-15T02:37:32;2.00;99.90
11963;DHT22;62678;52.130;5.584;2023-02-15T02:40:06;2.00;99.90
11963;DHT22;62678;52.130;5.584;2023-02-15T02:42:38;2.00;99.90
11963;DHT22;62678;52.130;5.584;2023-02-15T02:45:08;1.90;99.90
11963;DHT22;62678;52.130;5.584;2023-02-15T02:47:38;1.90;99.90
11963;DHT22;62678;52.130;5.584;2023-02-15T02:50:09;1.90;99.90
11963;DHT22;62678;52.130;5.584;2023-02-15T02:52:41;1.80;99.90
11963;DHT22;62678;52.130;5.584;2023-02-15T02:55:12;1.80;99.90
11963;DHT22;62678;52.130;5.584;2023-02-15T02:57:43;1.80;99.90
11963;DHT22;62678;52.130;5.584;2023-02-15T03:00:13;1.80;99.90
11963;DHT22;62678;52.130;5.584;2023-02-15T03:02:43;1.70;99.90
11963;DHT22;62678;52.130;5.584;2023-02-15T03:05:16;1.60;99.90
11963;DHT22;62678;52.130;5.584;2023-02-15T03:07:49;1.60;99.90
11963;DHT22;62678;52.130;5.584;2023-02-15T03:10:18;1.60;99.90
11963;DHT22;62678;52.130;5.584;2023-02-15T03:12:46;1.60;99.90
11963;DHT22;62678;52.130;5.584;2023-02-15T03:15:17;1.60;99.90
11963;DHT22;62678;52.130;5.584;2023-02-15T03:17:49;1.60;99.90
11963;DHT22;62678;52.130;5.584;2023-02-15T03:20:24;1.60;99.90
11963;DHT22;62678;52.130;5.584;2023-02-15T03:22:56;1.60;99.90
11963;DHT22;62678;52.130;5.584;2023-02-15T03:25:26;1.60;99.90
11963;DHT22;62678;52.130;5.584;2023-02-15T03:27:55;1.60;99.90
11963;DHT22;62678;52.130;5.584;2023-02-15T03:30:25;1.50;99.90
11963;DHT22;62678;52.130;5.584;2023-02-15T03:32:56;1.50;99.90
11963;DHT22;62678;52.130;5.584;2023-02-15T03:35:33;1.50;99.90
11963;DHT22;62678;52.130;5.584;2023-02-15T03:38:06;1.50;99.90
11963;DHT22;62678;52.130;5.584;2023-02-15T03:40:37;1.50;99.90
11963;DHT22;62678;52.130;5.584;2023-02-15T03:43:27;1.50;99.90
11963;DHT22;62678;52.130;5.584;2023-02-15T03:46:01;1.40;99.90
11963;DHT22;62678;52.130;5.584;2023-02-15T03:48:35;1.40;99.90
11963;DHT22;62678;52.130;5.584;2023-02-15T03:51:07;1.40;99.90
11963;DHT22;62678;52.130;5.584;2023-02-15T03:53:52;1.40;99.90
11963;DHT22;62678;52.130;5.584;2023-02-15T03:56:20;1.40;99.90
11963;DHT22;62678;52.130;5.584;2023-02-15T03:58:47;1.40;99.90
11963;DHT22;62678;52.130;5.584;2023-02-15T04:01:34;1.40;99.90
11963;DHT22;62678;52.130;5.584;2023-02-15T04:04:21;1.40;99.90
11963;DHT22;62678;52.130;5.584;2023-02-15T04:06:50;1.40;99.90
11963;DHT22;62678;52.130;5.584;2023-02-15T04:09:17;1.30;99.90
11963;DHT22;62678;52.130;5.584;2023-02-15T04:12:01;1.30;99.90
11963;DHT22;62678;52.130;5.584;2023-02-15T04:14:27;1.30;99.90
11963;DHT22;62678;52.130;5.584;2023-02-15T04:17:12;1.30;99.90
11963;DHT22;62678;52.130;5.584;2023-02-15T04:19:38;1.30;99.90
11963;DHT22;62678;52.130;5.584;2023-02-15T04:22:24;1.30;99.90
11963;DHT22;62678;52.130;5.584;2023-02-15T04:25:09;1.20;99.90
11963;DHT22;62678;52.130;5.584;2023-02-15T04:27:36;1.20;99.90
11963;DHT22;62678;52.130;5.584;2023-02-15T04:30:04;1.20;99.90
11963;DHT22;62678;52.130;5.584;2023-02-15T04:32:31;1.20;99.90
11963;DHT22;62678;52.130;5.584;2023-02-15T04:34:58;1.30;99.90
11963;DHT22;62678;52.130;5.584;2023-02-15T04:37:26;1.30;99.90
11963;DHT22;62678;52.130;5.584;2023-02-15T04:39:53;1.30;99.90
11963;DHT22;62678;52.130;5.584;2023-02-15T04:42:20;1.30;99.90
11963;DHT22;62678;52.130;5.584;2023-02-15T04:44:47;1.30;99.90
11963;DHT22;62678;52.130;5.584;2023-02-15T04:47:14;1.20;99.90
11963;DHT22;62678;52.130;5.584;2023-02-15T04:49:41;1.10;99.90
11963;DHT22;62678;52.130;5.584;2023-02-15T04:52:08;1.10;99.90
11963;DHT22;62678;52.130;5.584;2023-02-15T04:54:36;1.20;99.90
11963;DHT22;62678;52.130;5.584;2023-02-15T04:57:04;1.20;99.90
11963;DHT22;62678;52.130;5.584;2023-02-15T04:59:31;1.20;99.90
11963;DHT22;62678;52.130;5.584;2023-02-15T05:01:58;1.20;99.90
11963;DHT22;62678;52.130;5.584;2023-02-15T05:04:25;1.20;99.90
11963;DHT22;62678;52.130;5.584;2023-02-15T05:06:51;1.10;99.90
11963;DHT22;62678;52.130;5.584;2023-02-15T05:09:18;1.00;99.90
11963;DHT22;62678;52.130;5.584;2023-02-15T05:11:47;1.10;99.90
11963;DHT22;62678;52.130;5.584;2023-02-15T05:14:13;1.10;99.90
11963;DHT22;62678;52.130;5.584;2023-02-15T05:16:40;1.10;99.90
11963;DHT22;62678;52.130;5.584;2023-02-15T05:19:07;1.10;99.90
11963;DHT22;62678;52.130;5.584;2023-02-15T05:21:34;1.10;99.90
11963;DHT22;62678;52.130;5.584;2023-02-15T05:24:01;1.00;99.90
11963;DHT22;62678;52.130;5.584;2023-02-15T05:26:49;1.10;99.90
11963;DHT22;62678;52.130;5.584;2023-02-15T05:29:33;1.10;99.90
11963;DHT22;62678;52.130;5.584;2023-02-15T05:32:00;1.10;99.90
11963;DHT22;62678;52.130;5.584;2023-02-15T05:34:27;1.00;99.90
11963;DHT22;62678;52.130;5.584;2023-02-15T05:36:54;1.00;99.90
11963;DHT22;62678;52.130;5.584;2023-02-15T05:39:21;1.00;99.90
11963;DHT22;62678;52.130;5.584;2023-02-15T05:41:50;1.00;99.90
11963;DHT22;62678;52.130;5.584;2023-02-15T05:44:16;1.00;99.90
11963;DHT22;62678;52.130;5.584;2023-02-15T05:46:43;1.00;99.90
11963;DHT22;62678;52.130;5.584;2023-02-15T05:49:10;0.90;99.90
11963;DHT22;62678;52.130;5.584;2023-02-15T05:51:37;0.90;99.90
11963;DHT22;62678;52.130;5.584;2023-02-15T05:54:04;0.90;99.90
11963;DHT22;62678;52.130;5.584;2023-02-15T05:56:30;1.00;99.90
11963;DHT22;62678;52.130;5.584;2023-02-15T05:58:59;1.00;99.90
11963;DHT22;62678;52.130;5.584;2023-02-15T06:01:25;1.00;99.90
11963;DHT22;62678;52.130;5.584;2023-02-15T06:03:52;1.00;99.90
11963;DHT22;62678;52.130;5.584;2023-02-15T06:06:21;1.00;99.90
11963;DHT22;62678;52.130;5.584;2023-02-15T06:08:48;1.00;99.90
11963;DHT22;62678;52.130;5.584;2023-02-15T06:11:15;1.00;99.90
11963;DHT22;62678;52.130;5.584;2023-02-15T06:13:42;1.00;99.90
11963;DHT22;62678;52.130;5.584;2023-02-15T06:16:10;1.00;99.90
11963;DHT22;62678;52.130;5.584;2023-02-15T06:18:37;1.00;99.90
11963;DHT22;62678;52.130;5.584;2023-02-15T06:21:03;1.00;99.90
11963;DHT22;62678;52.130;5.584;2023-02-15T06:23:30;1.00;99.90
11963;DHT22;62678;52.130;5.584;2023-02-15T06:25:57;1.10;99.90
11963;DHT22;62678;52.130;5.584;2023-02-15T06:28:24;1.10;99.90
11963;DHT22;62678;52.130;5.584;2023-02-15T06:30:51;1.00;99.90
11963;DHT22;62678;52.130;5.584;2023-02-15T06:33:20;1.10;99.90
11963;DHT22;62678;52.130;5.584;2023-02-15T06:35:47;1.10;99.90
11963;DHT22;62678;52.130;5.584;2023-02-15T06:38:14;1.20;99.90
11963;DHT22;62678;52.130;5.584;2023-02-15T06:40:40;1.30;99.90
11963;DHT22;62678;52.130;5.584;2023-02-15T06:43:07;1.30;99.90
11963;DHT22;62678;52.130;5.584;2023-02-15T06:45:34;1.30;99.90
11963;DHT22;62678;52.130;5.584;2023-02-15T06:48:01;1.40;99.90
11963;DHT22;62678;52.130;5.584;2023-02-15T06:50:29;1.40;99.90
11963;DHT22;62678;52.130;5.584;2023-02-15T06:52:56;1.40;99.90
11963;DHT22;62678;52.130;5.584;2023-02-15T06:55:23;1.40;99.90
11963;DHT22;62678;52.130;5.584;2023-02-15T06:57:50;1.40;99.90
11963;DHT22;62678;52.130;5.584;2023-02-15T07:00:17;1.40;99.90
11963;DHT22;62678;52.130;5.584;2023-02-15T07:02:45;1.40;99.90
11963;DHT22;62678;52.130;5.584;2023-02-15T07:05:12;1.40;99.90
11963;DHT22;62678;52.130;5.584;2023-02-15T07:07:40;1.40;99.90
11963;DHT22;62678;52.130;5.584;2023-02-15T07:10:07;1.60;99.90
11963;DHT22;62678;52.130;5.584;2023-02-15T07:12:34;1.70;99.90
11963;DHT22;62678;52.130;5.584;2023-02-15T07:15:11;1.80;99.90
11963;DHT22;62678;52.130;5.584;2023-02-15T07:17:38;1.90;99.90
11963;DHT22;62678;52.130;5.584;2023-02-15T07:20:07;2.00;99.90
11963;DHT22;62678;52.130;5.584;2023-02-15T07:22:35;2.10;99.90
11963;DHT22;62678;52.130;5.584;2023-02-15T07:25:04;2.20;99.90
11963;DHT22;62678;52.130;5.584;2023-02-15T07:27:32;2.20;99.90
11963;DHT22;62678;52.130;5.584;2023-02-15T07:29:59;2.30;99.90
11963;DHT22;62678;52.130;5.584;2023-02-15T07:32:27;2.40;99.90
11963;DHT22;62678;52.130;5.584;2023-02-15T07:34:55;2.40;99.90
11963;DHT22;62678;52.130;5.584;2023-02-15T07:37:22;2.40;99.90
11963;DHT22;62678;52.130;5.584;2023-02-15T07:39:48;2.50;99.90
11963;DHT22;62678;52.130;5.584;2023-02-15T07:42:16;2.60;99.90
11963;DHT22;62678;52.130;5.584;2023-02-15T07:44:45;2.60;99.90
11963;DHT22;62678;52.130;5.584;2023-02-15T07:47:12;2.60;99.90
11963;DHT22;62678;52.130;5.584;2023-02-15T07:49:39;2.70;99.90
11963;DHT22;62678;52.130;5.584;2023-02-15T07:52:05;2.80;99.90
11963;DHT22;62678;52.130;5.584;2023-02-15T07:54:32;2.80;99.90
11963;DHT22;62678;52.130;5.584;2023-02-15T07:57:00;3.00;99.90
11963;DHT22;62678;52.130;5.584;2023-02-15T07:59:29;3.00;99.90
11963;DHT22;62678;52.130;5.584;2023-02-15T08:01:56;3.00;99.90
11963;DHT22;62678;52.130;5.584;2023-02-15T08:04:23;3.00;99.90
11963;DHT22;62678;52.130;5.584;2023-02-15T08:06:53;3.00;99.90
11963;DHT22;62678;52.130;5.584;2023-02-15T08:09:21;3.10;99.90
11963;DHT22;62678;52.130;5.584;2023-02-15T08:11:48;3.10;99.90
11963;DHT22;62678;52.130;5.584;2023-02-15T08:14:17;3.20;99.90
11963;DHT22;62678;52.130;5.584;2023-02-15T08:16:47;3.20;99.90
11963;DHT22;62678;52.130;5.584;2023-02-15T08:19:17;3.20;99.90
11963;DHT22;62678;52.130;5.584;2023-02-15T08:21:46;3.20;99.90
11963;DHT22;62678;52.130;5.584;2023-02-15T08:24:14;3.30;99.90
11963;DHT22;62678;52.130;5.584;2023-02-15T08:26:43;3.40;99.90
11963;DHT22;62678;52.130;5.584;2023-02-15T08:29:12;3.50;99.90
11963;DHT22;62678;52.130;5.584;2023-02-15T08:31:40;3.60;99.90
11963;DHT22;62678;52.130;5.584;2023-02-15T08:34:09;3.70;99.90
11963;DHT22;62678;52.130;5.584;2023-02-15T08:36:37;3.70;99.90
11963;DHT22;62678;52.130;5.584;2023-02-15T08:39:05;3.80;99.90
11963;DHT22;62678;52.130;5.584;2023-02-15T08:41:34;4.00;99.90
11963;DHT22;62678;52.130;5.584;2023-02-15T08:44:03;4.00;99.90
11963;DHT22;62678;52.130;5.584;2023-02-15T08:46:33;4.10;99.90
11963;DHT22;62678;52.130;5.584;2023-02-15T08:49:01;4.20;99.90
11963;DHT22;62678;52.130;5.584;2023-02-15T08:51:30;4.20;99.90
11963;DHT22;62678;52.130;5.584;2023-02-15T08:53:59;4.20;99.90
11963;DHT22;62678;52.130;5.584;2023-02-15T08:56:27;4.30;99.90
11963;DHT22;62678;52.130;5.584;2023-02-15T08:58:55;4.40;99.90
11963;DHT22;62678;52.130;5.584;2023-02-15T09:01:24;4.50;99.90
11963;DHT22;62678;52.130;5.584;2023-02-15T09:03:54;4.60;99.90
11963;DHT22;62678;52.130;5.584;2023-02-15T09:06:22;4.60;99.90
11963;DHT22;62678;52.130;5.584;2023-02-15T09:08:50;4.80;99.90
11963;DHT22;62678;52.130;5.584;2023-02-15T09:11:21;4.90;99.90
11963;DHT22;62678;52.130;5.584;2023-02-15T09:13:51;5.00;99.90
11963;DHT22;62678;52.130;5.584;2023-02-15T09:16:19;5.10;99.90
11963;DHT22;62678;52.130;5.584;2023-02-15T09:18:46;5.30;99.90
11963;DHT22;62678;52.130;5.584;2023-02-15T09:21:16;5.20;99.90
11963;DHT22;62678;52.130;5.584;2023-02-15T09:23:44;5.30;99.90
11963;DHT22;62678;52.130;5.584;2023-02-15T09:26:15;5.40;99.90
11963;DHT22;62678;52.130;5.584;2023-02-15T09:28:42;5.30;99.90
11963;DHT22;62678;52.130;5.584;2023-02-15T09:31:11;5.30;99.90
11963;DHT22;62678;52.130;5.584;2023-02-15T09:33:39;5.30;99.90
11963;DHT22;62678;52.130;5.584;2023-02-15T09:36:14;5.40;99.90
11963;DHT22;62678;52.130;5.584;2023-02-15T09:38:41;5.40;99.90
11963;DHT22;62678;52.130;5.584;2023-02-15T09:41:49;5.50;99.90
11963;DHT22;62678;52.130;5.584;2023-02-15T09:44:29;5.50;99.90
11963;DHT22;62678;52.130;5.584;2023-02-15T09:47:12;5.60;99.90
11963;DHT22;62678;52.130;5.584;2023-02-15T09:49:49;5.60;99.90
11963;DHT22;62678;52.130;5.584;2023-02-15T09:52:30;5.80;99.90
11963;DHT22;62678;52.130;5.584;2023-02-15T09:55:14;5.90;99.90
11963;DHT22;62678;52.130;5.584;2023-02-15T09:57:52;5.90;99.90
11963;DHT22;62678;52.130;5.584;2023-02-15T10:00:26;6.00;99.90
11963;DHT22;62678;52.130;5.584;2023-02-15T10:03:05;6.10;99.90
11963;DHT22;62678;52.130;5.584;2023-02-15T10:05:42;6.20;99.90
11963;DHT22;62678;52.130;5.584;2023-02-15T10:08:27;6.20;99.90
11963;DHT22;62678;52.130;5.584;2023-02-15T10:11:03;6.30;99.90
11963;DHT22;62678;52.130;5.584;2023-02-15T10:13:56;6.30;99.90
11963;DHT22;62678;52.130;5.584;2023-02-15T10:16:30;6.40;99.90
11963;DHT22;62678;52.130;5.584;2023-02-15T10:19:08;6.40;99.90
11963;DHT22;62678;52.130;5.584;2023-02-15T10:21:46;6.40;99.90
11963;DHT22;62678;52.130;5.584;2023-02-15T10:24:30;6.50;99.90
11963;DHT22;62678;52.130;5.584;2023-02-15T10:27:06;6.60;99.90
11963;DHT22;62678;52.130;5.584;2023-02-15T10:29:38;6.60;99.90
11963;DHT22;62678;52.130;5.584;2023-02-15T10:32:15;6.60;99.90
11963;DHT22;62678;52.130;5.584;2023-02-15T10:34:48;6.80;99.90
11963;DHT22;62678;52.130;5.584;2023-02-15T10:37:37;6.90;99.90
11963;DHT22;62678;52.130;5.584;2023-02-15T10:40:15;7.00;99.90
11963;DHT22;62678;52.130;5.584;2023-02-15T10:43:00;7.00;99.90
11963;DHT22;62678;52.130;5.584;2023-02-15T10:45:40;7.10;99.90
11963;DHT22;62678;52.130;5.584;2023-02-15T10:48:25;7.20;99.90
11963;DHT22;62678;52.130;5.584;2023-02-15T10:50:57;7.30;99.90
11963;DHT22;62678;52.130;5.584;2023-02-15T10:53:43;7.40;99.90
11963;DHT22;62678;52.130;5.584;2023-02-15T10:56:19;7.50;99.90
11963;DHT22;62678;52.130;5.584;2023-02-15T10:59:02;7.70;99.90
11963;DHT22;62678;52.130;5.584;2023-02-15T11:01:34;7.90;99.90
11963;DHT22;62678;52.130;5.584;2023-02-15T11:04:22;7.90;99.90
11963;DHT22;62678;52.130;5.584;2023-02-15T11:06:59;8.00;99.90
11963;DHT22;62678;52.130;5.584;2023-02-15T11:09:36;8.10;99.90
11963;DHT22;62678;52.130;5.584;2023-02-15T11:12:09;8.20;99.90
11963;DHT22;62678;52.130;5.584;2023-02-15T11:14:42;8.40;99.90
11963;DHT22;62678;52.130;5.584;2023-02-15T11:17:13;8.40;99.90
11963;DHT22;62678;52.130;5.584;2023-02-15T11:19:53;8.60;99.90
11963;DHT22;62678;52.130;5.584;2023-02-15T11:22:21;8.70;99.90
11963;DHT22;62678;52.130;5.584;2023-02-15T11:24:48;8.80;99.90
11963;DHT22;62678;52.130;5.584;2023-02-15T11:27:19;8.90;99.90
11963;DHT22;62678;52.130;5.584;2023-02-15T11:29:57;9.10;99.90
11963;DHT22;62678;52.130;5.584;2023-02-15T11:32:28;9.30;99.90
11963;DHT22;62678;52.130;5.584;2023-02-15T11:35:01;9.40;99.90
11963;DHT22;62678;52.130;5.584;2023-02-15T11:37:33;9.60;99.90
11963;DHT22;62678;52.130;5.584;2023-02-15T11:40:02;9.60;99.90
11963;DHT22;62678;52.130;5.584;2023-02-15T11:42:31;9.70;99.90
11963;DHT22;62678;52.130;5.584;2023-02-15T11:45:07;9.70;99.90
11963;DHT22;62678;52.130;5.584;2023-02-15T11:47:42;9.90;99.90
11963;DHT22;62678;52.130;5.584;2023-02-15T11:50:12;10.00;99.90
11963;DHT22;62678;52.130;5.584;2023-02-15T11:52:40;10.10;99.90
11963;DHT22;62678;52.130;5.584;2023-02-15T11:55:12;10.20;99.90
11963;DHT22;62678;52.130;5.584;2023-02-15T11:57:42;10.30;99.90
11963;DHT22;62678;52.130;5.584;2023-02-15T12:00:14;10.40;99.90
11963;DHT22;62678;52.130;5.584;2023-02-15T12:02:48;10.40;99.90
11963;DHT22;62678;52.130;5.584;2023-02-15T12:05:18;10.60;99.90
11963;DHT22;62678;52.130;5.584;2023-02-15T12:07:52;10.70;99.90
11963;DHT22;62678;52.130;5.584;2023-02-15T12:10:23;10.80;99.90
11963;DHT22;62678;52.130;5.584;2023-02-15T12:13:09;11.00;99.90
11963;DHT22;62678;52.130;5.584;2023-02-15T12:15:36;11.00;99.90
11963;DHT22;62678;52.130;5.584;2023-02-15T12:18:20;11.10;99.90
11963;DHT22;62678;52.130;5.584;2023-02-15T12:20:49;11.20;99.90
11963;DHT22;62678;52.130;5.584;2023-02-15T12:23:17;11.10;99.90
11963;DHT22;62678;52.130;5.584;2023-02-15T12:25:51;11.20;99.90
11963;DHT22;62678;52.130;5.584;2023-02-15T12:28:25;11.40;99.90
11963;DHT22;62678;52.130;5.584;2023-02-15T12:30:54;11.50;99.90
11963;DHT22;62678;52.130;5.584;2023-02-15T12:33:27;11.60;99.90
11963;DHT22;62678;52.130;5.584;2023-02-15T12:35:59;11.60;99.90
11963;DHT22;62678;52.130;5.584;2023-02-15T12:38:27;11.70;99.90
11963;DHT22;62678;52.130;5.584;2023-02-15T12:41:00;11.60;99.90
11963;DHT22;62678;52.130;5.584;2023-02-15T12:43:32;11.70;99.90
11963;DHT22;62678;52.130;5.584;2023-02-15T12:46:21;11.80;99.90
11963;DHT22;62678;52.130;5.584;2023-02-15T12:49:06;11.90;99.90
11963;DHT22;62678;52.130;5.584;2023-02-15T12:51:49;12.10;99.90
11963;DHT22;62678;52.130;5.584;2023-02-15T12:54:30;12.00;99.90
11963;DHT22;62678;52.130;5.584;2023-02-15T12:56:57;11.90;99.90
11963;DHT22;62678;52.130;5.584;2023-02-15T12:59:25;11.90;99.90
11963;DHT22;62678;52.130;5.584;2023-02-15T13:01:52;11.90;99.90
11963;DHT22;62678;52.130;5.584;2023-02-15T13:04:25;12.00;99.90
11963;DHT22;62678;52.130;5.584;2023-02-15T13:06:55;12.10;99.90
11963;DHT22;62678;52.130;5.584;2023-02-15T13:09:33;12.00;99.90
11963;DHT22;62678;52.130;5.584;2023-02-15T13:12:10;11.90;99.90
11963;DHT22;62678;52.130;5.584;2023-02-15T13:14:43;11.90;99.90
11963;DHT22;62678;52.130;5.584;2023-02-15T13:17:12;11.90;99.90
11963;DHT22;62678;52.130;5.584;2023-02-15T13:19:45;11.90;99.90
11963;DHT22;62678;52.130;5.584;2023-02-15T13:22:15;11.80;99.90
11963;DHT22;62678;52.130;5.584;2023-02-15T13:24:47;11.80;99.90
11963;DHT22;62678;52.130;5.584;2023-02-15T13:27:17;11.80;99.90
11963;DHT22;62678;52.130;5.584;2023-02-15T13:29:48;11.90;99.90
11963;DHT22;62678;52.130;5.584;2023-02-15T13:32:25;12.00;99.90
11963;DHT22;62678;52.130;5.584;2023-02-15T13:34:57;12.00;99.90
11963;DHT22;62678;52.130;5.584;2023-02-15T13:37:42;11.80;99.90
11963;DHT22;62678;52.130;5.584;2023-02-15T13:40:15;11.80;99.90
11963;DHT22;62678;52.130;5.584;2023-02-15T13:42:48;11.80;99.90
11963;DHT22;62678;52.130;5.584;2023-02-15T13:45:31;11.90;99.90
11963;DHT22;62678;52.130;5.584;2023-02-15T13:48:08;12.00;99.90
11963;DHT22;62678;52.130;5.584;2023-02-15T13:50:54;12.10;99.90
11963;DHT22;62678;52.130;5.584;2023-02-15T13:53:42;12.00;99.90
11963;DHT22;62678;52.130;5.584;2023-02-15T13:56:19;11.90;99.90
11963;DHT22;62678;52.130;5.584;2023-02-15T14:01:56;12.00;99.90
11963;DHT22;62678;52.130;5.584;2023-02-15T14:04:59;12.00;99.90
11963;DHT22;62678;52.130;5.584;2023-02-15T14:07:44;12.00;99.90
11963;DHT22;62678;52.130;5.584;2023-02-15T14:10:35;12.00;99.90
11963;DHT22;62678;52.130;5.584;2023-02-15T14:13:42;12.10;99.90
11963;DHT22;62678;52.130;5.584;2023-02-15T14:16:16;12.10;99.90
11963;DHT22;62678;52.130;5.584;2023-02-15T14:18:51;12.20;99.90
11963;DHT22;62678;52.130;5.584;2023-02-15T14:21:25;12.30;99.90
11963;DHT22;62678;52.130;5.584;2023-02-15T14:24:08;12.20;99.90
11963;DHT22;62678;52.130;5.584;2023-02-15T14:26:47;12.10;99.90
11963;DHT22;62678;52.130;5.584;2023-02-15T14:29:23;12.20;99.90
11963;DHT22;62678;52.130;5.584;2023-02-15T14:31:56;12.20;99.90
11963;DHT22;62678;52.130;5.584;2023-02-15T14:34:27;12.30;99.90
11963;DHT22;62678;52.130;5.584;2023-02-15T14:36:56;12.20;99.90
11963;DHT22;62678;52.130;5.584;2023-02-15T14:39:32;12.10;99.90
11963;DHT22;62678;52.130;5.584;2023-02-15T14:42:25;12.20;99.90
11963;DHT22;62678;52.130;5.584;2023-02-15T14:44:59;12.10;99.90
11963;DHT22;62678;52.130;5.584;2023-02-15T14:47:31;12.20;99.90
11963;DHT22;62678;52.130;5.584;2023-02-15T14:49:58;12.10;99.90
11963;DHT22;62678;52.130;5.584;2023-02-15T14:52:25;12.10;99.90
11963;DHT22;62678;52.130;5.584;2023-02-15T14:54:58;12.00;99.90
11963;DHT22;62678;52.130;5.584;2023-02-15T14:57:31;12.00;99.90
11963;DHT22;62678;52.130;5.584;2023-02-15T15:00:00;12.00;99.90
11963;DHT22;62678;52.130;5.584;2023-02-15T15:02:41;12.00;99.90
11963;DHT22;62678;52.130;5.584;2023-02-15T15:05:17;12.00;99.90
11963;DHT22;62678;52.130;5.584;2023-02-15T15:07:47;12.00;99.90
11963;DHT22;62678;52.130;5.584;2023-02-15T15:10:37;11.90;99.90
11963;DHT22;62678;52.130;5.584;2023-02-15T15:13:51;11.80;99.90
11963;DHT22;62678;52.130;5.584;2023-02-15T15:16:46;11.70;99.90
11963;DHT22;62678;52.130;5.584;2023-02-15T15:22:31;11.60;99.90
11963;DHT22;62678;52.130;5.584;2023-02-15T15:24:59;11.50;99.90
11963;DHT22;62678;52.130;5.584;2023-02-15T15:28:00;11.50;99.90
11963;DHT22;62678;52.130;5.584;2023-02-15T15:30:50;11.50;99.90
11963;DHT22;62678;52.130;5.584;2023-02-15T15:42:45;11.50;99.90
11963;DHT22;62678;52.130;5.584;2023-02-15T15:45:42;11.50;99.90
11963;DHT22;62678;52.130;5.584;2023-02-15T15:48:26;11.50;99.90
11963;DHT22;62678;52.130;5.584;2023-02-15T15:50:57;11.40;99.90
11963;DHT22;62678;52.130;5.584;2023-02-15T15:53:28;11.40;99.90
11963;DHT22;62678;52.130;5.584;2023-02-15T15:55:58;11.30;99.90
11963;DHT22;62678;52.130;5.584;2023-02-15T15:58:26;11.20;99.90
11963;DHT22;62678;52.130;5.584;2023-02-15T16:01:01;11.20;99.90
11963;DHT22;62678;52.130;5.584;2023-02-15T16:03:30;11.10;99.90
11963;DHT22;62678;52.130;5.584;2023-02-15T16:05:58;11.10;99.90
11963;DHT22;62678;52.130;5.584;2023-02-15T16:08:28;11.00;99.90
11963;DHT22;62678;52.130;5.584;2023-02-15T16:10:56;11.00;99.90
11963;DHT22;62678;52.130;5.584;2023-02-15T16:13:25;10.90;99.90
11963;DHT22;62678;52.130;5.584;2023-02-15T16:15:53;11.00;99.90
11963;DHT22;62678;52.130;5.584;2023-02-15T16:18:25;10.90;99.90
11963;DHT22;62678;52.130;5.584;2023-02-15T16:20:54;10.80;99.90
11963;DHT22;62678;52.130;5.584;2023-02-15T16:23:46;10.70;99.90
11963;DHT22;62678;52.130;5.584;2023-02-15T16:26:32;10.70;99.90
11963;DHT22;62678;52.130;5.584;2023-02-15T16:29:15;10.60;99.90
11963;DHT22;62678;52.130;5.584;2023-02-15T16:31:42;10.60;99.90
11963;DHT22;62678;52.130;5.584;2023-02-15T16:34:16;10.50;99.90